createdAt,value
2024-03-12T00:00:24.988Z,75.00
2024-03-12T00:01:28.873Z,75.00
2024-03-12T00:02:36.177Z,76.00
2024-03-12T00:03:51.134Z,76.00
2024-03-12T00:04:54.125Z,75.33
2024-03-12T00:05:56.947Z,75.00
2024-03-12T00:07:02.776Z,75.00
2024-03-12T00:08:06.957Z,75.00
2024-03-12T00:09:11.274Z,75.00
2024-03-12T00:10:17.082Z,75.00
2024-03-12T00:11:21.653Z,75.00
2024-03-12T00:12:24.619Z,74.33
2024-03-12T00:13:28.716Z,73.00
2024-03-12T00:14:35.099Z,73.00
2024-03-12T00:15:44.314Z,72.33
2024-03-12T00:16:47.331Z,71.50
2024-03-12T00:17:55.150Z,67.33
2024-03-12T00:18:58.493Z,64.33
2024-03-12T00:20:09.026Z,65.67
2024-03-12T00:21:14.828Z,95.00
2024-03-12T00:22:19.085Z,111.17
2024-03-12T00:23:27.168Z,142.00
2024-03-12T00:24:48.954Z,227.83
2024-03-12T00:25:52.885Z,377.67
2024-03-12T00:26:56.412Z,401.33
2024-03-12T00:28:00.560Z,378.17
2024-03-12T00:29:03.548Z,352.17
2024-03-12T00:30:10.395Z,357.17
2024-03-12T00:31:15.956Z,298.00
2024-03-12T00:32:20.123Z,276.00
2024-03-12T00:33:38.700Z,289.50
2024-03-12T00:34:42.928Z,239.50
2024-03-12T00:35:48.883Z,166.50
2024-03-12T00:36:53.722Z,131.17
2024-03-12T00:37:58.587Z,116.17
2024-03-12T00:39:04.072Z,113.83
2024-03-12T00:41:44.527Z,79.33
2024-03-12T00:42:49.007Z,71.33
2024-03-12T00:44:02.224Z,65.67
2024-03-12T00:45:07.482Z,65.50
2024-03-12T00:46:12.713Z,65.00
2024-03-12T00:47:17.752Z,63.33
2024-03-12T00:53:26.185Z,181.67
2024-03-12T00:55:03.338Z,273.00
2024-03-12T00:56:33.055Z,369.33
2024-03-12T00:59:56.937Z,421.67
2024-03-12T01:01:01.175Z,445.33
2024-03-12T01:02:10.001Z,444.00
2024-03-12T01:03:15.028Z,425.83
2024-03-12T01:08:13.355Z,391.17
2024-03-12T01:09:31.344Z,353.33
2024-03-12T01:10:38.348Z,325.67
2024-03-12T01:11:41.737Z,312.00
2024-03-12T01:14:31.578Z,259.83
2024-03-12T01:15:42.711Z,250.00
2024-03-12T01:17:23.408Z,189.67
2024-03-12T01:20:36.287Z,80.67
2024-03-12T01:23:18.625Z,64.17
2024-03-12T01:24:31.275Z,66.00
2024-03-12T01:25:37.938Z,72.33
2024-03-12T01:26:43.349Z,70.33
2024-03-12T01:27:49.762Z,69.00
2024-03-12T01:28:57.064Z,62.50
2024-03-12T01:30:03.027Z,57.17
2024-03-12T01:31:23.116Z,54.33
2024-03-12T01:32:30.580Z,51.17
2024-03-12T01:33:36.303Z,52.83
2024-03-12T01:34:39.470Z,49.33
2024-03-12T01:35:48.437Z,50.83
2024-03-12T01:36:54.172Z,48.67
2024-03-12T01:37:59.586Z,50.17
2024-03-12T01:39:05.820Z,51.33
2024-03-12T01:40:21.898Z,52.67
2024-03-12T01:41:34.652Z,54.00
2024-03-12T01:42:38.733Z,56.00
2024-03-12T01:45:00.209Z,55.17
2024-03-12T01:46:05.026Z,55.00
2024-03-12T01:47:10.337Z,54.17
2024-03-12T01:48:24.559Z,52.67
2024-03-12T01:49:30.499Z,51.17
2024-03-12T01:51:55.796Z,49.17
2024-03-12T01:53:01.290Z,49.00
2024-03-12T01:54:24.471Z,49.00
2024-03-12T01:55:28.534Z,49.00
2024-03-12T01:56:31.465Z,49.00
2024-03-12T01:57:35.085Z,49.00
2024-03-12T01:58:37.898Z,49.67
2024-03-12T01:59:41.421Z,50.00
2024-03-12T02:00:46.066Z,50.00
2024-03-12T02:01:52.737Z,50.00
2024-03-12T02:02:55.418Z,50.83
2024-03-12T02:04:00.526Z,51.00
2024-03-12T02:05:06.733Z,51.00
2024-03-12T02:06:18.490Z,50.17
2024-03-12T02:07:21.419Z,49.00
2024-03-12T02:08:25.009Z,49.00
2024-03-12T02:09:32.049Z,48.17
2024-03-12T02:10:36.602Z,47.67
2024-03-12T02:11:41.634Z,47.00
2024-03-12T02:12:46.789Z,47.00
2024-03-12T02:13:52.828Z,47.00
2024-03-12T02:14:56.424Z,47.00
2024-03-12T02:15:59.508Z,46.33
2024-03-12T02:17:06.593Z,46.00
2024-03-12T02:18:23.518Z,46.00
2024-03-12T02:19:27.436Z,46.00
2024-03-12T02:20:32.849Z,52.17
2024-03-12T02:21:38.130Z,61.83
2024-03-12T02:22:41.612Z,60.17
2024-03-12T02:23:47.625Z,59.00
2024-03-12T02:24:52.213Z,58.00
2024-03-12T02:25:55.860Z,58.00
2024-03-12T02:28:13.420Z,57.17
2024-03-12T02:29:16.356Z,57.00
2024-03-12T02:30:20.501Z,56.33
2024-03-12T02:31:23.335Z,56.00
2024-03-12T02:32:27.642Z,56.00
2024-03-12T02:33:30.661Z,56.00
2024-03-12T02:34:35.129Z,55.67
2024-03-12T02:35:37.821Z,55.00
2024-03-12T02:36:41.986Z,55.00
2024-03-12T02:37:44.990Z,55.00
2024-03-12T02:38:51.009Z,55.00
2024-03-12T02:39:53.513Z,55.33
2024-03-12T02:40:57.164Z,56.00
2024-03-12T02:42:01.447Z,55.67
2024-03-12T02:43:07.828Z,55.00
2024-03-12T02:44:11.271Z,55.00
2024-03-12T02:45:16.990Z,54.83
2024-03-12T02:46:22.369Z,54.67
2024-03-12T02:47:26.134Z,54.00
2024-03-12T02:48:28.638Z,53.00
2024-03-12T02:49:32.535Z,52.17
2024-03-12T02:50:35.336Z,50.83
2024-03-12T02:51:39.189Z,49.67
2024-03-12T02:52:43.593Z,49.00
2024-03-12T02:54:11.095Z,48.00
2024-03-12T02:58:41.974Z,44.33
2024-03-12T03:01:23.458Z,44.00
2024-03-12T03:02:27.261Z,43.00
2024-03-12T03:03:31.179Z,43.00
2024-03-12T03:04:38.173Z,43.00
2024-03-12T03:05:45.111Z,44.00
2024-03-12T03:06:47.976Z,44.00
2024-03-12T03:07:51.973Z,44.00
2024-03-12T03:10:32.045Z,44.00
2024-03-12T03:11:35.209Z,44.00
2024-03-12T03:12:40.011Z,44.00
2024-03-12T03:13:43.803Z,43.50
2024-03-12T03:14:47.759Z,43.83
2024-03-12T03:15:59.252Z,44.00
2024-03-12T03:17:03.112Z,43.50
2024-03-12T03:18:05.990Z,43.00
2024-03-12T03:19:10.195Z,43.00
2024-03-12T03:20:14.718Z,42.50
2024-03-12T03:21:18.615Z,42.00
2024-03-12T03:22:21.278Z,42.00
2024-03-12T03:23:24.489Z,42.00
2024-03-12T03:24:31.062Z,42.00
2024-03-12T03:25:35.043Z,42.00
2024-03-12T03:27:02.359Z,42.17
2024-03-12T03:28:07.022Z,44.67
2024-03-12T03:29:20.860Z,45.00
2024-03-12T03:30:24.795Z,45.00
2024-03-12T03:31:27.716Z,45.00
2024-03-12T03:34:12.509Z,46.00
2024-03-12T03:36:41.071Z,45.67
2024-03-12T03:39:04.336Z,45.00
2024-03-12T03:40:12.717Z,45.00
2024-03-12T03:41:34.014Z,45.00
2024-03-12T03:42:37.228Z,45.00
2024-03-12T03:43:45.180Z,45.00
2024-03-12T03:46:11.500Z,44.00
2024-03-12T03:47:14.669Z,44.00
2024-03-12T03:48:18.877Z,44.00
2024-03-12T03:49:22.987Z,44.00
2024-03-12T03:50:27.135Z,45.33
2024-03-12T03:51:30.067Z,46.33
2024-03-12T03:52:33.172Z,50.17
2024-03-12T03:53:38.724Z,53.83
2024-03-12T03:54:59.559Z,51.17
2024-03-12T03:59:27.028Z,43.00
2024-03-12T04:02:12.605Z,43.00
2024-03-12T04:04:48.917Z,49.33
2024-03-12T04:08:54.782Z,62.00
2024-03-12T04:10:20.645Z,63.50
2024-03-12T04:12:08.695Z,61.50
2024-03-12T04:13:15.797Z,60.67
2024-03-12T04:14:19.745Z,68.17
2024-03-12T04:17:06.542Z,82.00
2024-03-12T04:18:16.095Z,73.17
2024-03-12T04:22:56.129Z,59.00
2024-03-12T04:25:51.543Z,58.17
2024-03-12T04:26:54.487Z,59.00
2024-03-12T04:27:58.383Z,59.00
2024-03-12T04:29:02.700Z,60.33
2024-03-12T04:30:07.995Z,77.00
2024-03-12T04:31:11.743Z,82.50
2024-03-12T04:32:18.936Z,86.33
2024-03-12T04:33:21.614Z,86.17
2024-03-12T04:34:25.309Z,85.17
2024-03-12T04:35:28.211Z,88.17
2024-03-12T04:38:22.746Z,71.83
2024-03-12T04:39:58.448Z,70.33
2024-03-12T04:41:34.460Z,69.83
2024-03-12T04:42:55.234Z,65.83
2024-03-12T04:46:08.194Z,71.67
2024-03-12T04:47:12.124Z,94.50
2024-03-12T04:48:14.837Z,119.67
2024-03-12T04:52:45.406Z,127.50
2024-03-12T04:53:48.061Z,117.67
2024-03-12T04:54:50.681Z,111.67
2024-03-12T04:55:54.323Z,108.00
2024-03-12T04:56:58.394Z,106.67
2024-03-12T04:58:02.731Z,94.50
2024-03-12T04:59:05.903Z,77.67
2024-03-12T05:00:16.111Z,67.83
2024-03-12T05:01:22.270Z,69.33
2024-03-12T05:07:15.075Z,67.50
2024-03-12T05:08:17.909Z,69.17
2024-03-12T05:09:24.489Z,70.33
2024-03-12T05:10:28.441Z,71.17
2024-03-12T05:12:03.313Z,72.17
2024-03-12T05:13:15.416Z,80.33
2024-03-12T05:14:19.859Z,81.17
2024-03-12T05:15:23.189Z,80.83
2024-03-12T05:16:32.610Z,80.00
2024-03-12T05:17:36.478Z,83.83
2024-03-12T05:19:03.715Z,99.67
2024-03-12T05:20:10.867Z,94.83
2024-03-12T05:22:52.379Z,91.50
2024-03-12T05:25:47.912Z,90.00
2024-03-12T05:26:51.312Z,91.00
2024-03-12T05:27:55.704Z,94.17
2024-03-12T05:28:59.603Z,92.83
2024-03-12T05:30:11.564Z,90.50
2024-03-12T05:31:23.367Z,86.67
2024-03-12T05:32:45.950Z,82.17
2024-03-12T05:33:49.904Z,82.00
2024-03-12T05:34:59.927Z,87.00
2024-03-12T05:36:10.920Z,105.50
2024-03-12T05:37:30.016Z,108.00
2024-03-12T05:38:35.136Z,104.67
2024-03-12T05:39:49.650Z,102.17
2024-03-12T05:40:59.022Z,101.00
2024-03-12T05:42:20.085Z,98.83
2024-03-12T05:43:41.492Z,87.67
2024-03-12T05:45:02.988Z,81.33
2024-03-12T05:46:25.046Z,82.33
2024-03-12T05:47:50.556Z,83.50
2024-03-12T05:48:55.887Z,86.50
2024-03-12T05:49:59.645Z,90.33
2024-03-12T05:51:04.959Z,93.50
2024-03-12T05:52:09.651Z,95.33
2024-03-12T05:53:12.488Z,100.33
2024-03-12T05:54:16.280Z,99.83
2024-03-12T05:55:19.259Z,97.50
2024-03-12T05:56:31.848Z,96.00
2024-03-12T05:57:35.189Z,106.83
2024-03-12T05:58:39.581Z,122.00
2024-03-12T05:59:43.610Z,115.67
2024-03-12T06:00:48.526Z,112.50
2024-03-12T06:01:52.745Z,106.17
2024-03-12T06:02:59.371Z,99.33
2024-03-12T06:04:04.475Z,97.00
2024-03-12T06:05:08.313Z,96.33
2024-03-12T06:06:11.567Z,98.00
2024-03-12T06:07:16.925Z,98.83
2024-03-12T06:08:23.181Z,98.17
2024-03-12T06:09:28.531Z,106.00
2024-03-12T06:10:32.561Z,105.83
2024-03-12T06:11:36.324Z,104.50
2024-03-12T06:12:39.066Z,103.33
2024-03-12T06:13:42.936Z,102.83
2024-03-12T06:14:48.025Z,89.83
2024-03-12T06:15:51.183Z,80.83
2024-03-12T06:16:56.057Z,79.00
2024-03-12T06:17:58.609Z,80.83
2024-03-12T06:19:06.524Z,82.83
2024-03-12T06:21:34.132Z,75.50
2024-03-12T06:22:37.232Z,72.00
2024-03-12T06:23:42.256Z,83.33
2024-03-12T06:24:57.358Z,105.17
2024-03-12T06:26:01.830Z,100.17
2024-03-12T06:27:05.107Z,81.67
2024-03-12T06:28:09.172Z,64.50
2024-03-12T06:29:12.070Z,69.33
2024-03-12T06:30:19.814Z,72.83
2024-03-12T06:31:23.903Z,75.67
2024-03-12T06:32:32.971Z,88.17
2024-03-12T06:33:41.959Z,93.50
2024-03-12T06:34:48.691Z,87.33
2024-03-12T06:35:51.262Z,123.83
2024-03-12T06:36:58.948Z,246.17
2024-03-12T06:38:02.449Z,160.50
2024-03-12T06:39:07.265Z,168.50
2024-03-12T06:40:10.838Z,150.17
2024-03-12T06:41:16.305Z,218.50
2024-03-12T06:42:20.643Z,157.83
2024-03-12T06:43:24.195Z,135.33
2024-03-12T06:44:27.279Z,143.33
2024-03-12T06:45:32.802Z,119.67
2024-03-12T06:46:35.671Z,111.17
2024-03-12T06:47:41.529Z,89.00
2024-03-12T06:48:45.276Z,84.83
2024-03-12T06:49:50.644Z,81.83
2024-03-12T06:50:53.424Z,91.00
2024-03-12T06:51:57.519Z,97.00
2024-03-12T06:53:00.973Z,79.83
2024-03-12T06:54:08.549Z,78.00
2024-03-12T06:55:17.075Z,74.50
2024-03-12T06:56:23.311Z,71.17
2024-03-12T06:57:26.273Z,76.50
2024-03-12T06:58:30.135Z,81.83
2024-03-12T06:59:34.297Z,82.17
2024-03-12T07:00:38.834Z,82.00
2024-03-12T07:01:43.932Z,82.17
2024-03-12T07:02:47.199Z,83.17
2024-03-12T07:03:53.289Z,84.00
2024-03-12T07:04:57.344Z,83.50
2024-03-12T07:06:00.795Z,82.33
2024-03-12T07:07:06.869Z,73.00
2024-03-12T07:08:10.911Z,67.67
2024-03-12T07:09:23.901Z,68.83
2024-03-12T07:10:27.909Z,64.50
2024-03-12T07:11:30.759Z,64.17
2024-03-12T07:12:34.665Z,66.00
2024-03-12T07:13:41.668Z,68.00
2024-03-12T07:14:47.238Z,69.17
2024-03-12T07:15:50.673Z,72.17
2024-03-12T07:16:54.417Z,74.83
2024-03-12T07:17:57.116Z,76.50
2024-03-12T07:19:01.143Z,77.67
2024-03-12T07:20:12.090Z,78.00
2024-03-12T07:21:15.728Z,78.83
2024-03-12T07:22:19.036Z,80.50
2024-03-12T07:23:22.957Z,81.17
2024-03-12T07:24:25.697Z,84.17
2024-03-12T07:25:32.379Z,86.83
2024-03-12T07:26:35.550Z,88.00
2024-03-12T07:27:40.200Z,87.83
2024-03-12T07:28:44.145Z,87.00
2024-03-12T07:29:47.577Z,87.17
2024-03-12T07:30:51.406Z,90.67
2024-03-12T07:31:55.395Z,93.00
2024-03-12T07:32:58.551Z,93.50
2024-03-12T07:34:02.001Z,92.67
2024-03-12T07:35:07.742Z,92.00
2024-03-12T07:36:11.704Z,92.00
2024-03-12T07:37:14.689Z,90.83
2024-03-12T07:38:18.991Z,88.83
2024-03-12T07:39:26.192Z,87.50
2024-03-12T07:40:28.911Z,86.00
2024-03-12T07:41:32.667Z,87.00
2024-03-12T07:42:35.617Z,92.00
2024-03-12T07:43:38.609Z,92.50
2024-03-12T07:44:42.441Z,90.33
2024-03-12T07:45:48.004Z,88.67
2024-03-12T07:46:50.996Z,90.00
2024-03-12T07:47:54.873Z,87.67
2024-03-12T07:48:57.714Z,79.50
2024-03-12T07:50:03.861Z,76.50
2024-03-12T07:51:10.613Z,76.17
2024-03-12T07:52:14.750Z,76.50
2024-03-12T07:53:19.651Z,75.17
2024-03-12T07:54:23.031Z,73.33
2024-03-12T07:55:26.615Z,74.00
2024-03-12T07:56:31.084Z,75.17
2024-03-12T07:57:34.154Z,76.00
2024-03-12T07:58:37.877Z,75.83
2024-03-12T07:59:40.560Z,74.17
2024-03-12T08:00:44.129Z,72.83
2024-03-12T08:01:47.127Z,71.00
2024-03-12T08:02:50.798Z,69.33
2024-03-12T08:03:53.313Z,69.33
2024-03-12T08:04:58.256Z,70.00
2024-03-12T08:06:00.991Z,71.00
2024-03-12T08:07:05.794Z,71.17
2024-03-12T08:08:09.210Z,72.17
2024-03-12T08:09:13.477Z,71.83
2024-03-12T08:10:16.539Z,68.67
2024-03-12T08:11:20.879Z,67.33
2024-03-12T08:12:24.290Z,67.00
2024-03-12T08:13:28.169Z,67.33
2024-03-12T08:14:32.132Z,70.83
2024-03-12T08:15:36.902Z,74.50
2024-03-12T08:16:39.436Z,75.00
2024-03-12T08:17:47.142Z,75.00
2024-03-12T08:18:51.197Z,73.00
2024-03-12T08:19:54.932Z,71.67
2024-03-12T08:20:57.828Z,69.50
2024-03-12T08:22:02.064Z,67.00
2024-03-12T08:23:06.534Z,65.00
2024-03-12T08:24:12.264Z,65.17
2024-03-12T08:25:15.857Z,66.50
2024-03-12T08:26:19.446Z,67.00
2024-03-12T08:27:23.100Z,67.00
2024-03-12T08:28:25.603Z,67.33
2024-03-12T08:29:29.031Z,67.00
2024-03-12T08:30:33.549Z,67.50
2024-03-12T08:31:45.009Z,67.33
2024-03-12T08:32:54.324Z,67.00
2024-03-12T08:33:59.141Z,67.33
2024-03-12T08:35:01.894Z,73.17
2024-03-12T08:36:09.165Z,84.67
2024-03-12T08:37:13.459Z,79.50
2024-03-12T08:38:20.289Z,75.67
2024-03-12T08:39:23.448Z,75.00
2024-03-12T08:40:27.307Z,75.00
2024-03-12T08:41:30.393Z,75.00
2024-03-12T08:42:35.993Z,74.50
2024-03-12T08:43:42.675Z,75.00
2024-03-12T08:44:46.383Z,76.67
2024-03-12T08:45:49.347Z,79.67
2024-03-12T08:46:54.497Z,82.17
2024-03-12T08:48:00.512Z,82.50
2024-03-12T08:49:07.027Z,81.00
2024-03-12T08:50:10.896Z,79.83
2024-03-12T08:51:14.842Z,75.50
2024-03-12T08:52:18.704Z,72.00
2024-03-12T08:53:22.638Z,70.00
2024-03-12T08:54:26.669Z,70.00
2024-03-12T08:55:30.280Z,70.00
2024-03-12T08:56:34.773Z,70.00
2024-03-12T08:57:38.481Z,70.00
2024-03-12T08:58:41.041Z,70.67
2024-03-12T08:59:45.351Z,72.50
2024-03-12T09:00:48.225Z,72.00
2024-03-12T09:01:51.765Z,72.00
2024-03-12T09:02:55.062Z,71.83
2024-03-12T09:03:58.841Z,70.83
2024-03-12T09:05:01.612Z,69.00
2024-03-12T09:06:06.068Z,68.00
2024-03-12T09:07:10.225Z,67.83
2024-03-12T09:08:14.808Z,66.67
2024-03-12T09:09:19.759Z,64.50
2024-03-12T09:10:23.965Z,63.17
2024-03-12T09:11:26.775Z,64.00
2024-03-12T09:12:30.946Z,64.17
2024-03-12T09:13:33.687Z,68.00
2024-03-12T09:14:37.140Z,75.00
2024-03-12T09:15:42.538Z,75.83
2024-03-12T09:16:46.363Z,74.50
2024-03-12T09:17:49.031Z,71.50
2024-03-12T09:18:54.981Z,69.17
2024-03-12T09:19:58.552Z,68.17
2024-03-12T09:21:02.075Z,68.50
2024-03-12T09:22:04.962Z,69.00
2024-03-12T09:23:07.937Z,69.00
2024-03-12T09:24:11.768Z,69.00
2024-03-12T09:25:18.275Z,71.33
2024-03-12T09:26:22.790Z,73.50
2024-03-12T09:27:26.006Z,74.00
2024-03-12T09:28:29.843Z,74.33
2024-03-12T09:29:33.069Z,75.00
2024-03-12T09:30:36.821Z,74.17
2024-03-12T09:31:40.585Z,74.83
2024-03-12T09:32:45.424Z,75.00
2024-03-12T09:33:48.094Z,75.50
2024-03-12T09:34:53.641Z,77.00
2024-03-12T09:35:56.369Z,77.00
2024-03-12T09:37:00.075Z,77.00
2024-03-12T09:38:02.743Z,77.17
2024-03-12T09:39:12.344Z,78.83
2024-03-12T09:40:35.306Z,81.50
2024-03-12T09:41:47.532Z,82.33
2024-03-12T09:42:54.426Z,82.00
2024-03-12T09:43:58.494Z,82.00
2024-03-12T09:45:01.379Z,81.00
2024-03-12T09:46:06.640Z,76.83
2024-03-12T09:47:10.582Z,72.17
2024-03-12T09:48:16.460Z,71.67
2024-03-12T09:49:20.589Z,73.00
2024-03-12T09:50:26.615Z,74.83
2024-03-12T09:51:30.937Z,76.17
2024-03-12T09:52:40.092Z,78.17
2024-03-12T09:53:43.602Z,79.00
2024-03-12T09:54:47.776Z,79.00
2024-03-12T09:55:52.505Z,79.00
2024-03-12T09:56:57.271Z,80.33
2024-03-12T09:58:00.235Z,83.67
2024-03-12T09:59:03.001Z,91.83
2024-03-12T10:00:12.967Z,103.50
2024-03-12T10:01:16.155Z,99.00
2024-03-12T10:02:21.752Z,97.50
2024-03-12T10:03:25.807Z,91.67
2024-03-12T10:04:30.202Z,79.17
2024-03-12T10:05:34.916Z,71.33
2024-03-12T10:06:38.485Z,70.00
2024-03-12T10:08:14.749Z,71.67
2024-03-12T10:09:19.452Z,72.00
2024-03-12T10:10:27.576Z,73.00
2024-03-12T10:11:34.582Z,74.67
2024-03-12T10:12:37.290Z,75.00
2024-03-12T10:13:41.986Z,75.17
2024-03-12T10:14:45.971Z,76.67
2024-03-12T10:15:56.695Z,92.67
2024-03-12T10:17:15.422Z,114.33
2024-03-12T10:18:19.660Z,113.17
2024-03-12T10:19:26.866Z,105.83
2024-03-12T10:20:32.194Z,102.33
2024-03-12T10:21:36.226Z,101.00
2024-03-12T10:22:39.456Z,99.83
2024-03-12T10:23:44.447Z,97.17
2024-03-12T10:24:48.417Z,91.33
2024-03-12T10:25:51.147Z,84.83
2024-03-12T10:27:03.879Z,81.17
2024-03-12T10:28:08.387Z,79.33
2024-03-12T10:29:14.847Z,76.67
2024-03-12T10:30:25.753Z,71.67
2024-03-12T10:31:32.317Z,71.00
2024-03-12T10:32:36.257Z,72.00
2024-03-12T10:33:42.061Z,73.00
2024-03-12T10:34:45.829Z,75.67
2024-03-12T10:35:52.175Z,88.83
2024-03-12T10:36:55.102Z,100.67
2024-03-12T10:37:58.636Z,107.00
2024-03-12T10:39:01.336Z,109.00
2024-03-12T10:40:23.685Z,110.33
2024-03-12T10:41:27.118Z,128.67
2024-03-12T10:42:33.561Z,127.00
2024-03-12T10:43:36.678Z,124.17
2024-03-12T10:44:42.105Z,124.00
2024-03-12T10:45:46.171Z,122.33
2024-03-12T10:46:51.114Z,120.17
2024-03-12T10:47:56.026Z,119.00
2024-03-12T10:49:02.335Z,117.00
2024-03-12T10:50:08.674Z,112.50
2024-03-12T10:51:14.735Z,104.67
2024-03-12T10:52:19.615Z,98.00
2024-03-12T10:53:27.417Z,90.00
2024-03-12T10:54:36.380Z,86.00
2024-03-12T10:55:43.171Z,88.83
2024-03-12T10:56:47.708Z,88.33
2024-03-12T10:57:55.228Z,85.00
2024-03-12T10:58:58.712Z,87.50
2024-03-12T11:00:08.977Z,88.50
2024-03-12T11:01:13.642Z,93.67
2024-03-12T11:02:17.991Z,107.17
2024-03-12T11:03:24.510Z,115.00
2024-03-12T11:04:29.987Z,117.83
2024-03-12T11:05:34.023Z,143.17
2024-03-12T11:06:39.289Z,144.50
2024-03-12T11:07:46.042Z,133.33
2024-03-12T11:08:50.603Z,126.50
2024-03-12T11:09:55.341Z,112.00
2024-03-12T11:10:58.566Z,101.67
2024-03-12T11:12:02.467Z,95.17
2024-03-12T11:13:07.249Z,97.17
2024-03-12T11:14:11.381Z,99.00
2024-03-12T11:15:14.933Z,100.00
2024-03-12T11:16:19.612Z,100.83
2024-03-12T11:17:27.028Z,102.00
2024-03-12T11:18:36.394Z,103.67
2024-03-12T11:19:41.682Z,105.50
2024-03-12T11:20:45.989Z,116.50
2024-03-12T11:21:51.158Z,126.67
2024-03-12T11:22:56.893Z,123.33
2024-03-12T11:24:01.251Z,117.33
2024-03-12T11:25:06.874Z,114.00
2024-03-12T11:26:12.314Z,116.50
2024-03-12T11:27:22.741Z,125.17
2024-03-12T11:28:29.189Z,131.17
2024-03-12T11:30:05.163Z,139.67
2024-03-12T11:31:09.496Z,141.00
2024-03-12T11:32:15.068Z,135.50
2024-03-12T11:33:47.717Z,133.83
2024-03-12T11:34:50.251Z,130.50
2024-03-12T11:35:54.125Z,127.83
2024-03-12T11:37:15.133Z,127.00
2024-03-12T11:38:31.115Z,126.00
2024-03-12T11:39:35.117Z,122.83
2024-03-12T11:40:41.032Z,119.00
2024-03-12T11:42:16.308Z,111.50
2024-03-12T11:43:43.121Z,111.00
2024-03-12T11:44:51.124Z,108.00
2024-03-12T11:45:55.900Z,99.83
2024-03-12T11:46:59.802Z,99.50
2024-03-12T11:48:07.936Z,98.17
2024-03-12T11:49:39.267Z,103.00
2024-03-12T11:50:43.925Z,112.50
2024-03-12T11:52:00.191Z,113.00
2024-03-12T11:53:19.522Z,113.33
2024-03-12T11:54:41.841Z,112.50
2024-03-12T11:56:00.738Z,110.67
2024-03-12T11:57:06.928Z,117.33
2024-03-12T11:58:10.368Z,123.00
2024-03-12T11:59:26.181Z,125.17
2024-03-12T12:00:31.634Z,122.17
2024-03-12T12:01:36.118Z,96.00
2024-03-12T12:02:43.856Z,89.17
2024-03-12T12:03:48.809Z,91.50
2024-03-12T12:04:53.170Z,89.33
2024-03-12T12:05:57.558Z,89.83
2024-03-12T12:07:03.816Z,91.83
2024-03-12T12:08:09.929Z,94.00
2024-03-12T12:09:15.551Z,95.17
2024-03-12T12:10:19.769Z,96.50
2024-03-12T12:11:23.161Z,95.17
2024-03-12T12:12:30.909Z,88.83
2024-03-12T12:13:34.378Z,86.17
2024-03-12T12:14:39.520Z,88.17
2024-03-12T12:15:43.345Z,90.83
2024-03-12T12:16:46.223Z,95.17
2024-03-12T12:17:50.387Z,96.17
2024-03-12T12:18:53.236Z,96.00
2024-03-12T12:20:05.992Z,96.83
2024-03-12T12:21:15.703Z,98.83
2024-03-12T12:22:19.076Z,108.17
2024-03-12T12:23:22.358Z,111.00
2024-03-12T12:24:27.285Z,108.83
2024-03-12T12:25:29.777Z,106.33
2024-03-12T12:26:35.632Z,103.00
2024-03-12T12:27:39.922Z,102.50
2024-03-12T12:28:44.815Z,101.50
2024-03-12T12:29:49.293Z,101.00
2024-03-12T12:30:56.506Z,101.00
2024-03-12T12:31:59.663Z,101.50
2024-03-12T12:33:05.755Z,108.00
2024-03-12T12:34:10.065Z,110.00
2024-03-12T12:35:16.425Z,110.17
2024-03-12T12:36:24.065Z,117.50
2024-03-12T12:37:29.471Z,123.50
2024-03-12T12:38:33.575Z,116.83
2024-03-12T12:39:44.078Z,101.00
2024-03-12T12:40:57.012Z,86.50
2024-03-12T12:42:00.894Z,87.33
2024-03-12T12:43:06.867Z,90.33
2024-03-12T12:44:12.069Z,92.67
2024-03-12T12:45:16.102Z,93.00
2024-03-12T12:46:27.510Z,94.50
2024-03-12T12:47:31.045Z,96.00
2024-03-12T12:48:37.087Z,96.00
2024-03-12T12:49:41.875Z,95.00
2024-03-12T12:50:55.030Z,96.33
2024-03-12T12:51:59.296Z,98.83
2024-03-12T12:53:05.952Z,102.83
2024-03-12T12:54:11.031Z,103.83
2024-03-12T12:55:17.732Z,103.17
2024-03-12T12:56:21.046Z,103.00
2024-03-12T12:57:25.245Z,102.33
2024-03-12T12:58:32.685Z,100.17
2024-03-12T12:59:36.991Z,100.17
2024-03-12T13:00:44.880Z,101.33
2024-03-12T13:01:50.480Z,105.50
2024-03-12T13:02:54.621Z,116.00
2024-03-12T13:03:58.394Z,118.17
2024-03-12T13:05:04.262Z,128.33
2024-03-12T13:06:14.301Z,141.83
2024-03-12T13:07:29.934Z,151.33
2024-03-12T13:08:32.490Z,134.17
2024-03-12T13:09:38.019Z,131.83
2024-03-12T13:10:40.934Z,130.50
2024-03-12T13:11:45.744Z,129.17
2024-03-12T13:12:49.655Z,134.33
2024-03-12T13:13:53.842Z,136.50
2024-03-12T13:14:56.274Z,136.67
2024-03-12T13:16:14.703Z,135.67
2024-03-12T13:17:18.504Z,136.17
2024-03-12T13:18:21.226Z,135.33
2024-03-12T13:19:25.197Z,132.17
2024-03-12T13:20:28.024Z,127.50
2024-03-12T13:21:34.695Z,123.17
2024-03-12T13:22:37.300Z,121.17
2024-03-12T13:23:41.062Z,121.00
2024-03-12T13:24:45.315Z,121.00
2024-03-12T13:25:49.352Z,121.00
2024-03-12T13:26:52.823Z,121.17
2024-03-12T13:27:55.603Z,130.67
2024-03-12T13:28:59.107Z,158.33
2024-03-12T13:30:03.193Z,164.83
2024-03-12T13:31:09.471Z,175.50
2024-03-12T13:32:12.249Z,186.17
2024-03-12T13:33:15.159Z,187.50
2024-03-12T13:34:20.289Z,179.33
2024-03-12T13:35:23.874Z,176.50
2024-03-12T13:36:28.589Z,191.67
2024-03-12T13:37:31.386Z,201.67
2024-03-12T13:38:35.886Z,202.83
2024-03-12T13:39:39.027Z,202.00
2024-03-12T13:40:41.726Z,200.17
2024-03-12T13:41:45.602Z,211.50
2024-03-12T13:42:49.577Z,212.50
2024-03-12T13:43:53.918Z,209.83
2024-03-12T13:44:56.734Z,210.17
2024-03-12T13:45:59.378Z,211.50
2024-03-12T13:47:04.688Z,205.67
2024-03-12T13:48:07.834Z,201.83
2024-03-12T13:49:13.005Z,187.17
2024-03-12T13:50:17.667Z,180.17
2024-03-12T13:51:21.013Z,182.17
2024-03-12T13:52:24.704Z,194.50
2024-03-12T13:53:28.436Z,201.00
2024-03-12T13:54:32.293Z,203.83
2024-03-12T13:55:35.177Z,216.50
2024-03-12T13:56:39.099Z,217.17
2024-03-12T13:57:42.927Z,210.33
2024-03-12T13:58:47.765Z,206.33
2024-03-12T13:59:52.300Z,205.33
2024-03-12T14:00:58.538Z,205.00
2024-03-12T14:02:01.934Z,207.67
2024-03-12T14:03:07.539Z,214.67
2024-03-12T14:04:12.934Z,221.50
2024-03-12T14:05:18.841Z,222.00
2024-03-12T14:06:21.618Z,216.50
2024-03-12T14:07:26.284Z,201.67
2024-03-12T14:08:29.537Z,195.17
2024-03-12T14:09:33.461Z,189.33
2024-03-12T14:10:38.588Z,182.50
2024-03-12T14:11:43.867Z,183.17
2024-03-12T14:12:47.016Z,185.83
2024-03-12T14:13:52.110Z,186.83
2024-03-12T14:14:55.167Z,186.00
2024-03-12T14:15:59.772Z,182.33
2024-03-12T14:17:03.115Z,177.17
2024-03-12T14:18:08.915Z,174.83
2024-03-12T14:19:11.952Z,175.83
2024-03-12T14:20:16.534Z,176.50
2024-03-12T14:21:19.171Z,177.00
2024-03-12T14:22:23.143Z,178.00
2024-03-12T14:23:26.527Z,177.00
2024-03-12T14:24:30.526Z,177.17
2024-03-12T14:25:33.440Z,176.17
2024-03-12T14:26:37.267Z,175.33
2024-03-12T14:27:40.347Z,175.00
2024-03-12T14:28:46.527Z,175.67
2024-03-12T14:29:50.546Z,177.00
2024-03-12T14:30:56.001Z,179.83
2024-03-12T14:31:58.848Z,183.83
2024-03-12T14:33:02.889Z,184.33
2024-03-12T14:34:09.747Z,185.00
2024-03-12T14:35:13.897Z,197.00
2024-03-12T14:36:18.376Z,286.17
2024-03-12T14:37:22.052Z,210.50
2024-03-12T14:38:24.666Z,186.83
2024-03-12T14:39:28.743Z,185.00
2024-03-12T14:40:31.286Z,185.33
2024-03-12T14:41:35.327Z,182.33
2024-03-12T14:42:39.268Z,182.50
2024-03-12T14:43:43.939Z,187.83
2024-03-12T14:44:46.634Z,194.00
2024-03-12T14:45:50.414Z,195.00
2024-03-12T14:46:53.326Z,194.67
2024-03-12T14:47:57.858Z,193.17
2024-03-12T14:49:00.765Z,192.00
2024-03-12T14:50:06.634Z,190.00
2024-03-12T14:51:10.877Z,189.50
2024-03-12T14:52:14.693Z,189.00
2024-03-12T14:53:18.170Z,189.67
2024-03-12T14:54:24.970Z,191.17
2024-03-12T14:55:27.787Z,194.83
2024-03-12T14:56:31.147Z,196.00
2024-03-12T14:57:35.118Z,201.50
2024-03-12T14:58:38.175Z,251.83
2024-03-12T14:59:41.672Z,222.17
2024-03-12T15:00:44.575Z,220.33
2024-03-12T15:01:48.960Z,224.67
2024-03-12T15:02:52.016Z,220.67
2024-03-12T15:03:58.341Z,219.00
2024-03-12T15:05:01.260Z,217.50
2024-03-12T15:06:10.571Z,216.33
2024-03-12T15:07:14.689Z,215.00
2024-03-12T15:08:17.857Z,214.33
2024-03-12T15:09:22.707Z,214.00